Time;durP1;ratioP1;P1;durP2;ratioP2;P2;SDS_P1;SDS_P2;PMS_P1;PMS_P2;Temp;Humidity;BMP_temperature;BMP_pressure;BME280_temperature;BME280_humidity;BME280_pressure;Samples;Min_cycle;Max_cycle;Signal;HPM_P1;HPM_P2
2023/12/08 00:00:32;;;;;;;24.10;12.15;;;;;;;;;;5056852;28;20102;-72
2023/12/08 00:02:58;;;;;;;21.08;11.40;;;;;;;;;;5056975;28;20040;-72
2023/12/08 00:05:24;;;;;;;19.63;11.13;;;;;;;;;;5056928;28;20036;-74
2023/12/08 00:07:50;;;;;;;21.50;12.32;;;;;;;;;;5056712;28;20581;-74
2023/12/08 00:10:16;;;;;;;21.27;11.85;;;;;;;;;;5056667;28;20087;-73
2023/12/08 00:12:42;;;;;;;18.23;10.90;;;;;;;;;;5039808;28;20040;-74
2023/12/08 00:15:09;;;;;;;21.08;10.88;;;;;;;;;;5056425;28;20048;-74
2023/12/08 00:17:35;;;;;;;21.08;11.52;;;;;;;;;;5039856;28;20079;-73
2023/12/08 00:20:01;;;;;;;21.75;11.52;;;;;;;;;;5039695;28;20071;-74
2023/12/08 00:22:27;;;;;;;18.65;11.65;;;;;;;;;;5056305;28;20037;-72
2023/12/08 00:24:53;;;;;;;17.92;11.23;;;;;;;;;;5056461;28;20043;-73
2023/12/08 00:27:19;;;;;;;16.60;11.55;;;;;;;;;;5039638;28;20535;-73
2023/12/08 00:29:45;;;;;;;17.63;9.95;;;;;;;;;;5039338;28;20040;-73
2023/12/08 00:32:11;;;;;;;20.80;10.85;;;;;;;;;;5056317;28;20063;-74
2023/12/08 00:34:37;;;;;;;15.60;9.90;;;;;;;;;;5056370;28;20072;-74
2023/12/08 00:37:03;;;;;;;16.52;10.95;;;;;;;;;;5038941;28;20102;-74
2023/12/08 00:39:29;;;;;;;18.38;11.00;;;;;;;;;;5056203;28;20600;-74
2023/12/08 00:41:55;;;;;;;18.45;11.48;;;;;;;;;;5055929;28;20040;-74
2023/12/08 00:44:21;;;;;;;16.65;10.43;;;7.30;1.00;;;;;;5056035;28;20072;-73
2023/12/08 00:46:48;;;;;;;19.40;11.32;;;;;;;;;;5056418;28;20044;-74
2023/12/08 00:49:14;;;;;;;18.63;10.00;;;;;;;;;;5055794;28;20087;-73
2023/12/08 00:51:40;;;;;;;17.75;9.73;;;;;;;;;;5056046;28;20091;-73
2023/12/08 00:54:06;;;;;;;20.33;11.50;;;;;;;;;;5039101;28;20102;-72
2023/12/08 00:56:32;;;;;;;18.67;11.00;;;;;;;;;;5055673;28;20638;-73
2023/12/08 00:58:58;;;;;;;19.00;10.73;;;;;;;;;;5055539;28;20086;-73
2023/12/08 01:01:24;;;;;;;15.93;10.60;;;;;;;;;;5055543;28;20040;-73
2023/12/08 01:03:50;;;;;;;17.10;11.23;;;;;;;;;;5038874;28;20032;-73
2023/12/08 01:06:16;;;;;;;17.42;9.98;;;7.10;1.00;;;;;;5055877;28;20071;-73
2023/12/08 01:08:42;;;;;;;18.52;10.38;;;;;;;;;;5055273;28;20043;-73
2023/12/08 01:11:08;;;;;;;16.60;10.70;;;7.30;1.00;;;;;;5055472;28;20044;-73
2023/12/08 01:13:34;;;;;;;18.25;10.57;;;;;;;;;;5055363;28;20068;-73
2023/12/08 01:16:00;;;;;;;21.85;12.27;;;;;;;;;;5038474;28;20381;-73
2023/12/08 01:18:26;;;;;;;16.30;10.65;;;;;;;;;;5055209;28;20055;-73
2023/12/08 01:20:54;;;;;;;18.60;11.07;;;;;;;;;;5054853;28;20040;-73
2023/12/08 01:23:20;;;;;;;18.35;11.05;;;;;;;;;;5038747;28;20044;-74
2023/12/08 01:25:46;;;;;;;16.80;11.23;;;;;;;;;;5055361;28;20051;-74
2023/12/08 01:28:12;;;;;;;17.13;10.45;;;;;;;;;;5055223;28;20041;-73
2023/12/08 01:30:38;;;;;;;17.67;10.40;;;;;;;;;;5054899;28;20044;-74
2023/12/08 01:33:04;;;;;;;17.85;10.82;;;;;;;;;;5055267;28;20432;-73
2023/12/08 01:35:30;;;;;;;18.00;10.52;;;;;;;;;;5054946;28;20040;-74
2023/12/08 01:37:56;;;;;;;16.63;10.55;;;;;;;;;;5054813;28;20076;-74
2023/12/08 01:40:22;;;;;;;23.48;10.70;;;;;;;;;;5054835;28;20105;-73
2023/12/08 01:42:47;;;;;;;20.45;11.32;;;7.20;1.00;;;;;;5054849;28;20032;-73
2023/12/08 01:45:14;;;;;;;17.15;11.65;;;;;;;;;;5055002;28;20098;-73
2023/12/08 01:47:41;;;;;;;19.05;11.27;;;;;;;;;;5053885;28;20040;-73
2023/12/08 01:50:09;;;;;;;17.67;11.10;;;;;;;;;;5054479;28;20127;-73
2023/12/08 01:52:36;;;;;;;18.52;10.95;;;;;;;;;;5054477;28;20044;-73
2023/12/08 01:55:02;;;;;;;17.02;10.82;;;;;;;;;;5054376;28;20055;-74
2023/12/08 01:57:28;;;;;;;19.35;11.38;;;;;;;;;;5038212;28;20033;-73
2023/12/08 01:59:54;;;;;;;20.67;12.23;;;;;;;;;;5054636;28;20496;-73
2023/12/08 02:02:20;;;;;;;17.52;10.15;;;;;;;;;;5037778;28;20095;-73
2023/12/08 02:04:49;;;;;;;19.55;11.77;;;7.00;1.00;;;;;;5054475;28;20040;-74
2023/12/08 02:07:15;;;;;;;19.25;11.55;;;;;;;;;;5037801;28;20041;-72
2023/12/08 02:09:41;;;;;;;22.38;11.93;;;;;;;;;;5054128;28;20047;-74
2023/12/08 02:12:09;;;;;;;19.67;11.98;;;;;;;;;;5054414;28;20048;-73
2023/12/08 02:14:35;;;;;;;20.95;11.90;;;;;;;;;;5037667;28;20127;-74
2023/12/08 02:17:08;;;;;;;21.15;12.48;;;7.20;1.00;;;;;;5054152;28;20127;-74
2023/12/08 02:19:34;;;;;;;23.10;12.20;;;;;;;;;;5054000;28;20078;-74
2023/12/08 02:22:00;;;;;;;19.25;11.70;;;;;;;;;;5037323;28;20040;-73
2023/12/08 02:24:26;;;;;;;20.67;11.98;;;;;;;;;;5054367;28;20587;-73
2023/12/08 02:26:52;;;;;;;21.48;12.43;;;;;;;;;;5054057;28;20500;-73
2023/12/08 02:29:18;;;;;;;22.80;12.57;;;;;;;;;;5053662;28;20094;-77
2023/12/08 02:31:45;;;;;;;17.45;11.55;;;;;;;;;;5054224;28;20036;-74
2023/12/08 02:34:15;;;;;;;23.38;13.30;;;;;;;;;;5053829;28;20044;-74
2023/12/08 02:36:41;;;;;;;19.52;12.80;;;;;;;;;;5055259;28;20045;-74
2023/12/08 02:39:09;;;;;;;22.95;14.27;;;7.20;1.00;;;;;;5054263;28;20044;-74
2023/12/08 02:41:35;;;;;;;20.33;12.52;;;;;;;;;;5054645;28;20048;-74
2023/12/08 02:44:01;;;;;;;25.20;15.00;;;;;;;;;;5053879;28;20492;-74
2023/12/08 02:46:27;;;;;;;22.15;13.40;;;;;;;;;;5053737;28;20051;-73
2023/12/08 02:48:53;;;;;;;22.92;12.82;;;;;;;;;;5053492;28;20044;-74
2023/12/08 02:51:19;;;;;;;25.10;13.73;;;;;;;;;;5037206;28;20047;-74
2023/12/08 02:53:45;;;;;;;21.90;12.30;;;;;;;;;;5053934;28;20048;-74
2023/12/08 02:56:10;;;;;;;22.77;13.93;;;7.10;1.00;;;;;;5037012;28;20044;-74
2023/12/08 02:58:36;;;;;;;20.50;12.60;;;;;;;;;;5036894;28;20408;-74
2023/12/08 03:01:02;;;;;;;23.08;12.98;;;;;;;;;;5036954;28;20033;-74
2023/12/08 03:03:28;;;;;;;23.23;13.15;;;;;;;;;;5053512;28;20033;-74
2023/12/08 03:05:54;;;;;;;21.00;11.85;;;;;;;;;;5053274;28;20102;-74
2023/12/08 03:08:20;;;;;;;22.02;13.60;;;;;;;;;;5053421;28;20051;-73
2023/12/08 03:10:46;;;;;;;21.10;13.68;;;;;;;;;;5053558;28;20044;-74
2023/12/08 03:13:12;;;;;;;23.70;13.32;;;;;;;;;;5053318;28;20036;-74
2023/12/08 03:15:38;;;;;;;22.70;12.88;;;;;;;;;;5036653;28;20093;-74
2023/12/08 03:18:04;;;;;;;23.20;13.20;;;;;;;;;;5036999;28;20346;-74
2023/12/08 03:20:30;;;;;;;19.50;12.52;;;7.20;1.00;;;;;;5053218;28;20044;-74
2023/12/08 03:22:56;;;;;;;22.67;13.55;;;;;;;;;;5053766;28;20051;-74
2023/12/08 03:25:22;;;;;;;25.00;13.95;;;;;;;;;;5053310;28;20050;-73
2023/12/08 03:27:48;;;;;;;22.02;13.38;;;;;;;;;;5036773;28;20051;-74
2023/12/08 03:30:14;;;;;;;23.05;13.65;;;;;;;;;;5053294;28;20094;-74
2023/12/08 03:32:40;;;;;;;24.52;13.90;;;;;;;;;;5053187;28;20036;-74
2023/12/08 03:35:06;;;;;;;23.27;14.18;;;;;;;;;;5052783;28;20044;-74
2023/12/08 03:37:32;;;;;;;25.40;15.02;;;;;;;;;;5053459;28;20041;-73
2023/12/08 03:39:58;;;;;;;23.50;14.30;;;;;;;;;;5053255;28;20043;-74
2023/12/08 03:42:24;;;;;;;25.38;14.00;;;;;;;;;;5053161;28;20037;-74
2023/12/08 03:44:50;;;;;;;25.75;14.98;;;;;;;;;;5053122;28;20133;-73
2023/12/08 03:47:18;;;;;;;24.92;14.88;;;;;;;;;;5036422;28;20044;-73
2023/12/08 03:49:44;;;;;;;26.10;14.48;;;;;;;;;;5036333;28;20052;-74
2023/12/08 03:52:10;;;;;;;23.60;14.35;;;;;;;;;;5036485;28;20040;-73
2023/12/08 03:54:36;;;;;;;23.92;14.60;;;;;;;;;;5036788;28;20185;-74
2023/12/08 03:57:02;;;;;;;24.45;13.85;;;;;;;;;;5036563;28;20040;-73
2023/12/08 03:59:28;;;;;;;29.02;16.30;;;;;;;;;;5052804;28;20124;-74
2023/12/08 04:01:54;;;;;;;23.88;14.43;;;;;;;;;;5053162;28;20128;-74
2023/12/08 04:04:21;;;;;;;26.38;14.55;;;;;;;;;;5052981;28;20043;-74
2023/12/08 04:06:47;;;;;;;28.77;15.98;;;;;;;;;;5053022;28;20048;-73
2023/12/08 04:09:13;;;;;;;30.48;15.82;;;;;;;;;;5052779;28;20531;-74
2023/12/08 04:11:39;;;;;;;29.95;15.23;;;;;;;;;;5055442;28;20040;-74
2023/12/08 04:14:04;;;;;;;27.33;15.25;;;;;;;;;;5056798;28;20044;-73
2023/12/08 04:16:30;;;;;;;27.77;15.10;;;;;;;;;;5056416;28;20076;-73
2023/12/08 04:18:56;;;;;;;27.73;15.95;;;;;;;;;;5039604;28;20404;-73
2023/12/08 04:21:22;;;;;;;25.65;15.88;;;;;;;;;;5039772;28;20116;-74
2023/12/08 04:23:48;;;;;;;26.77;15.35;;;;;;;;;;5056443;28;20044;-73
2023/12/08 04:26:16;;;;;;;26.42;15.13;;;;;;;;;;5056305;28;20135;-73
2023/12/08 04:28:42;;;;;;;27.33;15.77;;;;;;;;;;5056109;28;20535;-73
2023/12/08 04:31:08;;;;;;;28.08;16.23;;;;;;;;;;5056076;28;20037;-73
2023/12/08 04:33:34;;;;;;;27.02;16.27;;;;;;;;;;5056235;28;20036;-73
2023/12/08 04:36:00;;;;;;;28.08;16.98;;;;;;;;;;5056143;28;20091;-73
2023/12/08 04:38:26;;;;;;;27.77;17.05;;;;;;;;;;5039820;28;20475;-74
2023/12/08 04:40:52;;;;;;;24.98;15.43;;;;;;;;;;5056263;28;20040;-73
2023/12/08 04:43:18;;;;;;;25.42;15.68;;;;;;;;;;5055959;28;20138;-73
2023/12/08 04:45:44;;;;;;;27.83;15.43;;;;;;;;;;5055726;28;20563;-73
2023/12/08 04:48:10;;;;;;;28.67;16.08;;;6.70;15.50;;;;;;5055975;28;20097;-72
2023/12/08 04:50:36;;;;;;;30.30;15.95;;;;;;;;;;5055766;28;20496;-73
2023/12/08 04:53:02;;;;;;;25.50;15.77;;;;;;;;;;5055801;28;20393;-73
2023/12/08 04:55:28;;;;;;;27.80;15.38;;;;;;;;;;5056033;28;20049;-73
2023/12/08 04:57:54;;;;;;;30.13;17.13;;;;;;;;;;5055738;28;20128;-74
2023/12/08 05:00:20;;;;;;;28.77;16.30;;;;;;;;;;5055444;28;20511;-73
2023/12/08 05:02:47;;;;;;;28.05;15.98;;;6.70;17.20;;;;;;5055592;28;20076;-73
2023/12/08 05:05:13;;;;;;;33.72;17.60;;;;;;;;;;5055611;28;20093;-73
2023/12/08 05:07:39;;;;;;;33.42;17.95;;;;;;;;;;5055531;28;20407;-73
2023/12/08 05:10:05;;;;;;;27.83;16.77;;;;;;;;;;5055500;28;20048;-74
2023/12/08 05:12:31;;;;;;;33.97;17.90;;;;;;;;;;5038720;28;20078;-74
2023/12/08 05:14:57;;;;;;;30.42;16.95;;;;;;;;;;5055272;28;20052;-74
2023/12/08 05:17:23;;;;;;;27.90;16.95;;;;;;;;;;5055291;28;20043;-74
2023/12/08 05:19:49;;;;;;;28.98;16.77;;;;;;;;;;5055244;28;20040;-74
2023/12/08 05:22:15;;;;;;;30.55;17.60;;;;;;;;;;5053629;28;20530;-73
2023/12/08 05:24:41;;;;;;;31.95;16.85;;;;;;;;;;5055459;28;20036;-74
2023/12/08 05:27:07;;;;;;;28.17;16.05;;;;;;;;;;5055030;28;20044;-73
2023/12/08 05:29:33;;;;;;;29.10;16.30;;;;;;;;;;5038338;28;20533;-73
2023/12/08 05:31:59;;;;;;;28.85;16.58;;;;;;;;;;5038587;28;20072;-74
2023/12/08 05:34:25;;;;;;;27.05;15.73;;;;;;;;;;5038426;28;20037;-73
2023/12/08 05:36:51;;;;;;;28.73;16.38;;;;;;;;;;5054919;28;20093;-73
2023/12/08 05:39:17;;;;;;;31.73;17.45;;;;;;;;;;5054780;28;20512;-74
2023/12/08 05:41:43;;;;;;;33.30;17.38;;;;;;;;;;5054728;28;20075;-73
2023/12/08 05:44:09;;;;;;;31.33;16.00;;;;;;;;;;5054888;28;20037;-73
2023/12/08 05:46:35;;;;;;;26.85;16.48;;;;;;;;;;5055113;28;20097;-73
2023/12/08 05:49:02;;;;;;;29.73;16.33;;;;;;;;;;5054505;28;20495;-73
2023/12/08 05:51:28;;;;;;;34.10;16.58;;;;;;;;;;5054625;28;20045;-73
2023/12/08 05:53:54;;;;;;;28.55;15.63;;;;;;;;;;5054599;28;20642;-74
2023/12/08 05:56:20;;;;;;;30.77;17.33;;;;;;;;;;5038184;28;20135;-74
2023/12/08 05:58:46;;;;;;;28.13;16.40;;;;;;;;;;5054279;28;20040;-73
2023/12/08 06:01:13;;;;;;;31.98;18.10;;;6.60;21.50;;;;;;5037989;28;20059;-74
2023/12/08 06:03:39;;;;;;;30.73;18.23;;;;;;;;;;5054484;28;20040;-74
2023/12/08 06:06:05;;;;;;;29.45;16.23;;;6.40;24.30;;;;;;5054465;28;20044;-74
2023/12/08 06:08:31;;;;;;;29.73;17.38;;;;;;;;;;5037934;28;20074;-73
2023/12/08 06:10:57;;;;;;;28.77;16.52;;;;;;;;;;5054045;28;20051;-74
2023/12/08 06:13:23;;;;;;;30.67;16.92;;;;;;;;;;5054263;28;20388;-74
2023/12/08 06:15:49;;;;;;;29.27;16.92;;;;;;;;;;5054203;28;20036;-74
2023/12/08 06:18:15;;;;;;;30.48;17.45;;;;;;;;;;5054246;28;20561;-74
2023/12/08 06:20:41;;;;;;;31.20;16.83;;;;;;;;;;5037503;28;20127;-74
2023/12/08 06:23:07;;;;;;;29.10;16.33;;;;;;;;;;5054264;28;20044;-73
2023/12/08 06:25:33;;;;;;;34.85;17.33;;;;;;;;;;5053692;28;20573;-73
2023/12/08 06:27:59;;;;;;;32.40;17.88;;;;;;;;;;5054151;28;20642;-73
2023/12/08 06:30:25;;;;;;;29.92;17.38;;;;;;;;;;5053546;28;20048;-74
2023/12/08 06:32:51;;;;;;;32.88;17.27;;;;;;;;;;5053569;28;20397;-74
2023/12/08 06:35:17;;;;;;;31.77;17.63;;;;;;;;;;5053639;28;20047;-73
2023/12/08 06:37:43;;;;;;;29.55;16.95;;;;;;;;;;5053656;28;20526;-74
2023/12/08 06:40:10;;;;;;;29.42;16.55;;;;;;;;;;5053203;28;20129;-73
2023/12/08 06:42:36;;;;;;;31.90;18.85;;;;;;;;;;5053598;28;20044;-73
2023/12/08 06:45:03;;;;;;;35.13;19.40;;;;;;;;;;5054043;28;20028;-73
2023/12/08 06:47:28;;;;;;;33.95;17.92;;;;;;;;;;5054006;28;20036;-74
2023/12/08 06:49:55;;;;;;;35.28;19.58;;;;;;;;;;5036709;28;20044;-74
2023/12/08 06:52:20;;;;;;;32.97;19.23;;;;;;;;;;5053686;28;20044;-73
2023/12/08 06:54:49;;;;;;;32.05;18.13;;;6.80;24.70;;;;;;5053323;28;20055;-74
2023/12/08 06:57:15;;;;;;;34.00;18.70;;;;;;;;;;5053427;28;20132;-72
2023/12/08 06:59:41;;;;;;;34.63;18.80;;;;;;;;;;5053310;28;20115;-74
2023/12/08 07:02:06;;;;;;;32.22;17.33;;;;;;;;;;5037191;28;20040;-74
2023/12/08 07:04:32;;;;;;;28.48;16.75;;;;;;;;;;5036880;28;20029;-74
2023/12/08 07:06:58;;;;;;;35.35;19.15;;;;;;;;;;5036834;28;20058;-74
2023/12/08 07:09:24;;;;;;;29.55;18.02;;;;;;;;;;5036307;28;20045;-74
2023/12/08 07:11:50;;;;;;;35.03;19.25;;;6.50;25.80;;;;;;5053487;28;20407;-74
2023/12/08 07:14:16;;;;;;;32.17;18.45;;;;;;;;;;5046968;28;20037;-73
2023/12/08 07:16:43;;;;;;;38.90;19.80;;;;;;;;;;5049647;28;20105;-74
2023/12/08 07:19:09;;;;;;;30.52;17.35;;;;;;;;;;5048735;28;20041;-73
2023/12/08 07:21:41;;;;;;;34.63;19.10;;;;;;;;;;5046079;28;20116;-74
2023/12/08 07:24:07;;;;;;;34.85;19.77;;;;;;;;;;5042974;28;20419;-72
2023/12/08 07:26:33;;;;;;;33.92;18.95;;;;;;;;;;5037250;28;20144;-75
2023/12/08 07:28:59;;;;;;;31.80;19.05;;;;;;;;;;5040918;28;20036;-75
2023/12/08 07:31:25;;;;;;;33.45;19.27;;;;;;;;;;5040876;28;20044;-74
2023/12/08 07:33:51;;;;;;;33.60;18.60;;;;;;;;;;5044116;28;20033;-73
2023/12/08 07:36:17;;;;;;;31.70;17.80;;;;;;;;;;5039120;28;20083;-73
2023/12/08 07:38:43;;;;;;;33.38;19.25;;;;;;;;;;5050606;28;20033;-73
2023/12/08 07:41:09;;;;;;;32.85;17.98;;;;;;;;;;5035995;28;20608;-73
2023/12/08 07:43:35;;;;;;;33.60;20.08;;;;;;;;;;5052645;28;20120;-74
2023/12/08 07:46:01;;;;;;;37.35;20.25;;;;;;;;;;5038302;28;20166;-74
2023/12/08 07:48:27;;;;;;;35.88;19.15;;;;;;;;;;5056950;28;20040;-74
2023/12/08 07:50:54;;;;;;;37.42;20.90;;;;;;;;;;5057178;28;20056;-74
2023/12/08 07:53:20;;;;;;;35.70;20.17;;;;;;;;;;5040251;28;20066;-73
2023/12/08 07:55:46;;;;;;;33.75;20.10;;;;;;;;;;5056742;28;20040;-73
2023/12/08 07:58:12;;;;;;;36.33;20.48;;;;;;;;;;5040382;28;20115;-74
2023/12/08 08:00:38;;;;;;;33.72;19.50;;;;;;;;;;5057019;28;20044;-74
2023/12/08 08:03:05;;;;;;;36.15;20.67;;;;;;;;;;5056996;28;20043;-73
2023/12/08 08:05:31;;;;;;;36.65;20.45;;;;;;;;;;5056784;28;20184;-74
2023/12/08 08:07:57;;;;;;;33.15;18.98;;;;;;;;;;5057060;28;20508;-74
2023/12/08 08:10:23;;;;;;;34.40;18.75;;;;;;;;;;5039913;28;20040;-74
2023/12/08 08:12:49;;;;;;;38.60;21.08;;;;;;;;;;5056711;28;20036;-73
2023/12/08 08:15:15;;;;;;;33.97;18.92;;;;;;;;;;5039953;28;20041;-74
2023/12/08 08:17:41;;;;;;;36.42;20.13;;;;;;;;;;5056598;28;20086;-74
2023/12/08 08:20:07;;;;;;;35.17;19.40;;;;;;;;;;5056167;28;20040;-74
2023/12/08 08:22:33;;;;;;;39.05;20.15;;;;;;;;;;5056361;28;20476;-74
2023/12/08 08:25:00;;;;;;;38.78;20.05;;;;;;;;;;5056262;28;20048;-73
2023/12/08 08:27:26;;;;;;;34.88;19.50;;;;;;;;;;5056290;28;20523;-73
2023/12/08 08:29:52;;;;;;;33.20;19.15;;;;;;;;;;5039594;28;20523;-72
2023/12/08 08:32:18;;;;;;;37.20;20.25;;;;;;;;;;5039542;28;20037;-73
2023/12/08 08:34:44;;;;;;;33.65;18.85;;;;;;;;;;5056065;28;20526;-74
2023/12/08 08:37:10;;;;;;;36.22;20.17;;;;;;;;;;5039440;28;20451;-74
2023/12/08 08:39:36;;;;;;;35.20;19.77;;;;;;;;;;5056088;28;20535;-73
2023/12/08 08:42:02;;;;;;;37.85;20.65;;;6.70;27.50;;;;;;5056079;28;20045;-74
2023/12/08 08:44:28;;;;;;;38.53;20.45;;;;;;;;;;5055963;28;20404;-74
2023/12/08 08:46:54;;;;;;;36.90;20.27;;;;;;;;;;5056033;28;20131;-74
2023/12/08 08:49:20;;;;;;;39.95;19.20;;;;;;;;;;5055657;28;20044;-73
2023/12/08 08:51:46;;;;;;;36.97;20.58;;;;;;;;;;5039188;28;20051;-74
2023/12/08 08:54:13;;;;;;;36.65;20.35;;;;;;;;;;5056091;28;20054;-74
2023/12/08 08:56:39;;;;;;;35.53;20.65;;;;;;;;;;5055542;28;20408;-74
2023/12/08 08:59:05;;;;;;;36.88;18.88;;;;;;;;;;5054861;28;20044;-74
2023/12/08 09:01:31;;;;;;;38.42;20.77;;;;;;;;;;5055377;28;20561;-75
2023/12/08 09:03:57;;;;;;;39.13;20.45;;;;;;;;;;5055500;28;20127;-73
2023/12/08 09:06:24;;;;;;;34.50;20.88;;;;;;;;;;5055572;28;20494;-74
2023/12/08 09:08:50;;;;;;;36.92;19.38;;;;;;;;;;5055290;28;20455;-73
2023/12/08 09:11:16;;;;;;;39.55;20.75;;;;;;;;;;5038854;28;20045;-74
2023/12/08 09:13:42;;;;;;;33.85;20.23;;;;;;;;;;5054533;28;20040;-74
2023/12/08 09:16:08;;;;;;;33.25;19.17;;;;;;;;;;5038327;28;20051;-74
2023/12/08 09:18:36;;;;;;;34.00;19.80;;;;;;;;;;5054897;28;20144;-75
2023/12/08 09:21:02;;;;;;;33.63;19.05;;;;;;;;;;5055013;28;20040;-74
2023/12/08 09:23:28;;;;;;;39.28;20.27;;;;;;;;;;5078849;22;20472;-71
2023/12/08 09:25:54;;;;;;;33.63;18.90;;;;;;;;;;5055274;28;20036;-71
2023/12/08 09:28:20;;;;;;;36.65;20.90;;;6.80;27.00;;;;;;5055319;28;20478;-71
2023/12/08 09:30:46;;;;;;;36.78;19.60;;;6.70;27.40;;;;;;5054966;28;20051;-71
2023/12/08 09:33:12;;;;;;;38.28;19.70;;;;;;;;;;5065098;28;20036;-71
2023/12/08 09:35:38;;;;;;;39.30;20.40;;;;;;;;;;5055152;28;20037;-70
2023/12/08 09:38:04;;;;;;;39.97;19.90;;;;;;;;;;5071757;28;20044;-71
2023/12/08 09:40:32;;;;;;;34.53;18.90;;;6.80;27.90;;;;;;5071394;28;20068;-71
2023/12/08 09:42:58;;;;;;;31.55;18.80;;;;;;;;;;5073179;28;20074;-71
2023/12/08 09:45:24;;;;;;;36.60;20.45;;;;;;;;;;5071633;28;20056;-71
2023/12/08 09:47:54;;;;;;;33.40;19.48;;;6.80;27.90;;;;;;5071548;28;20033;-71
2023/12/08 09:50:20;;;;;;;33.35;18.27;;;6.80;31.20;;;;;;5071733;28;20526;-71
2023/12/08 09:52:46;;;;;;;36.00;19.67;;;6.70;31.00;;;;;;5072671;28;20035;-72
2023/12/08 09:55:12;;;;;;;33.17;18.80;;;6.70;31.30;;;;;;5071229;28;20044;-71
2023/12/08 09:57:41;;;;;;;36.17;21.05;;;7.00;29.10;;;;;;5071756;28;20041;-71
2023/12/08 10:00:15;;;;;;;36.33;20.42;;;;;;;;;;5072498;28;20044;-71
2023/12/08 10:02:41;;;;;;;36.63;19.13;;;;;;;;;;5072569;28;20037;-71
2023/12/08 10:05:10;;;;;;;35.28;19.60;;;7.90;30.00;;;;;;5055014;28;20047;-71
2023/12/08 10:07:37;;;;;;;35.58;19.35;;;;;;;;;;5071004;28;20083;-71
2023/12/08 10:10:04;;;;;;;35.22;19.17;;;;;;;;;;5070777;28;20040;-71
2023/12/08 10:12:30;;;;;;;35.28;19.55;;;;;;;;;;5071091;28;20132;-72
2023/12/08 10:14:57;;;;;;;37.53;20.50;;;;;;;;;;5070990;28;20135;-71
2023/12/08 10:17:23;;;;;;;34.70;19.40;;;;;;;;;;5070914;28;20040;-71
2023/12/08 10:19:51;;;;;;;34.80;18.58;;;7.10;34.30;;;;;;5070838;28;20500;-71
2023/12/08 10:22:18;;;;;;;40.35;19.73;;;7.20;31.90;;;;;;5054085;28;20075;-71
2023/12/08 10:24:44;;;;;;;35.42;20.70;;;;;;;;;;5071095;28;20075;-71
2023/12/08 10:27:10;;;;;;;35.42;19.33;;;;;;;;;;5054256;28;20703;-71
2023/12/08 10:29:37;;;;;;;34.88;18.80;;;;;;;;;;5053972;28;20083;-71
2023/12/08 10:32:04;;;;;;;35.42;20.70;;;7.00;32.20;;;;;;5070915;28;20040;-70
2023/12/08 10:34:31;;;;;;;38.58;20.92;;;;;;;;;;5070665;28;20516;-70
2023/12/08 10:36:57;;;;;;;33.83;20.20;;;7.10;34.50;;;;;;5053758;28;20045;-71
2023/12/08 10:39:24;;;;;;;40.03;22.48;;;;;;;;;;5070445;28;20074;-71
2023/12/08 10:41:53;;;;;;;37.33;21.15;;;7.40;33.70;;;;;;5070766;28;20434;-70
2023/12/08 10:44:21;;;;;;;42.42;22.00;;;7.30;34.00;;;;;;5070673;28;20068;-71
2023/12/08 10:46:50;;;;;;;43.30;21.42;;;7.20;32.50;;;;;;5070701;28;20503;-71
2023/12/08 10:49:20;;;;;;;35.65;20.13;;;;;;;;;;5053598;28;20083;-71
2023/12/08 10:51:49;;;;;;;38.85;21.45;;;7.30;33.00;;;;;;5070373;28;20033;-71
2023/12/08 10:54:17;;;;;;;36.72;20.67;;;7.20;32.40;;;;;;5070453;28;20051;-70
2023/12/08 10:56:44;;;;;;;33.47;19.02;;;;;;;;;;5053780;28;20044;-71
2023/12/08 10:59:11;;;;;;;42.85;22.98;;;7.20;33.60;;;;;;5070182;28;20132;-71
2023/12/08 11:01:37;;;;;;;39.63;21.63;;;7.20;34.00;;;;;;5070233;28;20041;-71
2023/12/08 11:04:05;;;;;;;46.58;22.65;;;;;;;;;;5070489;28;20032;-71
2023/12/08 11:06:33;;;;;;;44.92;22.73;;;7.40;35.40;;;;;;5070280;28;20044;-71
2023/12/08 11:09:06;;;;;;;44.83;21.45;;;;;;;;;;5070221;28;20044;-71
2023/12/08 11:11:32;;;;;;;47.10;24.23;;;;;;;;;;5053872;28;20110;-71
2023/12/08 11:14:09;;;;;;;41.00;21.88;;;7.40;36.50;;;;;;5069912;28;20193;-71
2023/12/08 11:16:49;;;;;;;44.47;22.95;;;7.60;36.10;;;;;;5070191;28;20045;-71
2023/12/08 11:19:15;;;;;;;38.03;19.83;;;;;;;;;;5070354;28;20041;-71
2023/12/08 11:21:42;;;;;;;43.28;22.05;;;7.50;37.70;;;;;;5074551;28;20579;-71
2023/12/08 11:24:09;;;;;;;46.85;23.27;;;7.50;41.00;;;;;;5076897;28;20492;-71
2023/12/08 11:26:49;;;;;;;38.25;20.90;;;;;;;;;;5075055;28;20059;-70
2023/12/08 11:29:40;;;;;;;44.28;21.55;;;7.50;38.90;;;;;;5074022;28;20052;-71
2023/12/08 11:32:18;;;;;;;42.03;20.83;;;7.50;39.10;;;;;;5074199;28;20047;-71
2023/12/08 11:35:00;;;;;;;39.33;22.10;;;7.50;39.10;;;;;;5074108;28;20051;-71
2023/12/08 11:37:28;;;;;;;53.10;24.45;;;;;;;;;;5073935;28;20099;-71
2023/12/08 11:40:00;;;;;;;49.17;23.92;;;;;;;;;;5074072;28;20102;-71
2023/12/08 11:42:26;;;;;;;44.92;23.40;;;;;;;;;;5057545;28;20043;-70
2023/12/08 11:44:52;;;;;;;53.00;24.33;;;;;;;;;;5074064;28;20040;-71
2023/12/08 11:47:21;;;;;;;45.15;22.33;;;7.50;38.70;;;;;;5073872;28;20045;-69
2023/12/08 11:49:48;;;;;;;47.10;23.27;;;7.30;39.50;;;;;;5073494;28;20040;-70
2023/12/08 11:52:19;;;;;;;45.40;23.33;;;7.60;38.50;;;;;;5073957;28;20040;-70
2023/12/08 11:55:00;;;;;;;49.80;23.05;;;7.60;39.20;;;;;;5073678;28;20044;-70
2023/12/08 11:57:26;;;;;;;44.92;22.85;;;;;;;;;;5073575;28;20080;-71
2023/12/08 11:59:53;;;;;;;59.35;26.27;;;7.60;43.60;;;;;;5073617;28;20067;-70
2023/12/08 12:02:19;;;;;;;51.15;24.30;;;;;;;;;;5073640;28;20064;-70
2023/12/08 12:04:45;;;;;;;43.05;22.73;;;;;;;;;;5073932;28;20041;-70
2023/12/08 12:07:11;;;;;;;48.05;22.83;;;;;;;;;;5057237;28;20062;-70
2023/12/08 12:09:39;;;;;;;47.47;23.80;;;7.90;41.90;;;;;;5073494;28;20040;-70
2023/12/08 12:12:09;;;;;;;46.78;23.65;;;;;;;;;;5073361;28;20040;-70
2023/12/08 12:14:42;;;;;;;52.65;24.02;;;;;;;;;;5056375;28;20044;-70
2023/12/08 12:17:10;;;;;;;52.75;25.08;;;;;;;;;;5074734;28;20048;-70
2023/12/08 12:19:36;;;;;;;60.42;25.63;;;;;;;;;;5073238;28;20527;-71
2023/12/08 12:22:02;;;;;;;56.78;26.92;;;;;;;;;;5056464;28;20054;-71
2023/12/08 12:24:29;;;;;;;57.83;24.52;;;;;;;;;;5056443;28;20507;-71
2023/12/08 12:26:54;;;;;;;54.58;24.95;;;7.80;47.90;;;;;;5072985;28;20500;-71
2023/12/08 12:29:20;;;;;;;54.60;23.65;;;;;;;;;;5074352;28;20051;-71
2023/12/08 12:31:46;;;;;;;57.70;26.77;;;;;;;;;;5072588;28;20618;-71
2023/12/08 12:34:12;;;;;;;51.85;24.85;;;;;;;;;;5073279;28;20488;-71
2023/12/08 12:36:39;;;;;;;54.22;24.02;;;;;;;;;;5056254;28;20052;-71
2023/12/08 12:39:05;;;;;;;48.75;24.00;;;;;;;;;;5073150;28;20049;-71
2023/12/08 12:41:31;;;;;;;46.38;23.52;;;7.80;50.20;;;;;;5072811;28;20047;-70
2023/12/08 12:43:58;;;;;;;49.25;24.80;;;8.00;49.20;;;;;;5072681;28;20036;-70
2023/12/08 12:46:27;;;;;;;47.85;23.70;;;7.90;50.80;;;;;;5056093;28;20041;-71
2023/12/08 12:48:54;;;;;;;57.97;26.42;;;7.70;47.20;;;;;;5072453;28;20040;-70
2023/12/08 12:51:36;;;;;;;53.97;25.33;;;;;;;;;;5072683;28;20076;-71
2023/12/08 12:54:05;;;;;;;51.90;23.70;;;;;;;;;;5072576;28;20047;-70
2023/12/08 12:56:36;;;;;;;61.85;26.50;;;;;;;;;;5072452;28;20496;-70
2023/12/08 12:59:12;;;;;;;59.20;26.00;;;;;;;;;;5072282;28;20042;-71
2023/12/08 13:01:38;;;;;;;49.92;23.52;;;7.90;51.70;;;;;;5072735;28;20044;-71
2023/12/08 13:04:04;;;;;;;49.47;23.13;;;8.00;48.20;;;;;;5072459;28;20571;-71
2023/12/08 13:06:32;;;;;;;45.22;22.42;;;;;;;;;;5072271;28;20060;-71
2023/12/08 13:08:59;;;;;;;42.88;22.42;;;8.30;50.00;;;;;;5072199;28;20551;-71
2023/12/08 13:11:26;;;;;;;54.67;25.00;;;;;;;;;;5072735;28;20447;-70
2023/12/08 13:13:52;;;;;;;66.82;26.33;;;;;;;;;;5072230;28;20079;-70
2023/12/08 13:16:18;;;;;;;62.60;26.38;;;;;;;;;;5055539;28;20059;-70
2023/12/08 13:18:48;;;;;;;49.50;25.02;;;;;;;;;;5071963;28;20060;-70
2023/12/08 13:21:17;;;;;;;43.80;22.00;;;;;;;;;;5072146;28;20504;-71
2023/12/08 13:23:44;;;;;;;52.40;23.95;;;8.00;51.20;;;;;;5071759;28;20630;-70
2023/12/08 13:26:10;;;;;;;47.22;22.63;;;8.00;55.80;;;;;;5072059;28;20067;-71
2023/12/08 13:28:35;;;;;;;52.83;24.25;;;8.00;56.10;;;;;;5072018;28;20079;-70
2023/12/08 13:31:01;;;;;;;52.90;23.52;;;8.10;53.70;;;;;;5071884;28;20169;-71
2023/12/08 13:33:27;;;;;;;48.78;23.98;;;;;;;;;;5055295;28;20036;-72
2023/12/08 13:35:53;;;;;;;53.20;25.52;;;;;;;;;;5055148;28;20059;-72
2023/12/08 13:38:19;;;;;;;47.20;22.52;;;7.80;53.30;;;;;;5071758;28;20036;-71
2023/12/08 13:40:45;;;;;;;48.03;23.73;;;;;;;;;;5071521;28;20116;-72
2023/12/08 13:43:11;;;;;;;48.47;22.42;;;;;;;;;;5070761;28;20063;-71
2023/12/08 13:45:37;;;;;;;53.78;23.88;;;;;;;;;;5054966;28;20496;-71
2023/12/08 13:48:04;;;;;;;51.58;24.75;;;;;;;;;;5055156;28;20044;-71
2023/12/08 13:50:30;;;;;;;48.80;22.98;;;8.20;57.70;;;;;;5071381;28;20048;-71
2023/12/08 13:52:56;;;;;;;44.70;22.52;;;;;;;;;;5071421;28;20139;-72